BSL5322 SBBV-SBBE
Flight info
| Callsign | BSL5322 |
|---|---|
| Flight time | N/A |
| Altitude | 29000 |
| Route | KIGOX DCT ILVIS DCT AKPAN DCT PAKUT |
| Aircraft | RJ1H/M-SDFGIRWY/LB1 |
Departure
| Time | 2026-04-28 07:13 |
|---|---|
| Airport | Atlas Brasil Cantanhede International Airport (SBBV) |
Arrival
| Time | N/A |
|---|---|
| Airport | Val de Cans/Júlio Cezar Ribeiro International Airport (SBBE) |
| Time | Latitude | Longitude | Altitude | Speed | Heading |
|---|---|---|---|---|---|
| 2026-04-28 06:34 | 2.84165 | -60.69332 | 279 ft | 0 kts | 153° |
| 2026-04-28 06:53 | 2.84176 | -60.69338 | 279 ft | 4 kts | 150° |
| 2026-04-28 06:54 | 2.84197 | -60.69353 | 279 ft | 4 kts | 135° |
| 2026-04-28 06:54 | 2.84210 | -60.69375 | 279 ft | 4 kts | 90° |
| 2026-04-28 06:54 | 2.84206 | -60.69388 | 279 ft | 1 kts | 63° |
| 2026-04-28 06:54 | 2.84206 | -60.69389 | 279 ft | 0 kts | 63° |
| 2026-04-28 07:04 | 2.84208 | -60.69384 | 279 ft | 2 kts | 63° |
| 2026-04-28 07:04 | 2.84213 | -60.69374 | 273 ft | 1 kts | 63° |
| 2026-04-28 07:04 | 2.84215 | -60.69370 | 273 ft | 0 kts | 63° |
| 2026-04-28 07:04 | 2.84219 | -60.69362 | 279 ft | 5 kts | 63° |
| 2026-04-28 07:05 | 2.84233 | -60.69335 | 279 ft | 4 kts | 63° |
| 2026-04-28 07:05 | 2.84243 | -60.69316 | 279 ft | 2 kts | 63° |
| 2026-04-28 07:05 | 2.84250 | -60.69303 | 279 ft | 2 kts | 63° |
| 2026-04-28 07:05 | 2.84256 | -60.69290 | 279 ft | 3 kts | 63° |
| 2026-04-28 07:06 | 2.84272 | -60.69260 | 279 ft | 6 kts | 63° |
| 2026-04-28 07:06 | 2.84301 | -60.69233 | 279 ft | 5 kts | 7° |
| 2026-04-28 07:06 | 2.84328 | -60.69250 | 279 ft | 5 kts | 281° |
| 2026-04-28 07:06 | 2.84321 | -60.69278 | 279 ft | 4 kts | 248° |
| 2026-04-28 07:07 | 2.84309 | -60.69305 | 279 ft | 6 kts | 243° |
| 2026-04-28 07:07 | 2.84278 | -60.69367 | 279 ft | 14 kts | 243° |
| 2026-04-28 07:07 | 2.84236 | -60.69449 | 279 ft | 13 kts | 243° |
| 2026-04-28 07:07 | 2.84198 | -60.69522 | 279 ft | 11 kts | 243° |
| 2026-04-28 07:08 | 2.84167 | -60.69584 | 279 ft | 9 kts | 243° |
| 2026-04-28 07:08 | 2.84140 | -60.69635 | 279 ft | 8 kts | 243° |
| 2026-04-28 07:08 | 2.84119 | -60.69678 | 279 ft | 6 kts | 243° |
| 2026-04-28 07:08 | 2.84100 | -60.69714 | 279 ft | 6 kts | 243° |
| 2026-04-28 07:09 | 2.84080 | -60.69752 | 279 ft | 7 kts | 243° |
| 2026-04-28 07:09 | 2.84057 | -60.69798 | 279 ft | 8 kts | 243° |
| 2026-04-28 07:09 | 2.84033 | -60.69844 | 279 ft | 7 kts | 243° |
| 2026-04-28 07:09 | 2.84014 | -60.69883 | 279 ft | 6 kts | 243° |
| 2026-04-28 07:10 | 2.83996 | -60.69917 | 279 ft | 5 kts | 243° |
| 2026-04-28 07:10 | 2.83981 | -60.69946 | 279 ft | 4 kts | 243° |
| 2026-04-28 07:10 | 2.83966 | -60.69977 | 279 ft | 5 kts | 243° |
| 2026-04-28 07:10 | 2.83960 | -60.70013 | 279 ft | 5 kts | 293° |
| 2026-04-28 07:11 | 2.83989 | -60.70034 | 279 ft | 5 kts | 338° |
| 2026-04-28 07:11 | 2.84012 | -60.70043 | 280 ft | 3 kts | 338° |
| 2026-04-28 07:11 | 2.84028 | -60.70050 | 280 ft | 3 kts | 338° |
| 2026-04-28 07:11 | 2.84056 | -60.70061 | 280 ft | 6 kts | 338° |
| 2026-04-28 07:12 | 2.84098 | -60.70047 | 280 ft | 7 kts | 60° |
| 2026-04-28 07:12 | 2.84150 | -60.69946 | 279 ft | 41 kts | 63° |
| 2026-04-28 07:12 | 2.84377 | -60.69501 | 277 ft | 100 kts | 63° |
| 2026-04-28 07:12 | 2.84764 | -60.68745 | 282 ft | 142 kts | 63° |
| 2026-04-28 07:13 | 2.85244 | -60.67805 | 500 ft | 162 kts | 65° |
| 2026-04-28 07:13 | 2.85761 | -60.66795 | 1018 ft | 160 kts | 63° |
| 2026-04-28 07:13 | 2.86269 | -60.65819 | 1452 ft | 155 kts | 63° |
| 2026-04-28 07:13 | 2.86768 | -60.64872 | 1787 ft | 159 kts | 63° |
| 2026-04-28 07:14 | 2.87312 | -60.63829 | 1802 ft | 179 kts | 63° |
| 2026-04-28 07:14 | 2.87582 | -60.62572 | 1757 ft | 204 kts | 100° |
| 2026-04-28 07:14 | 2.86827 | -60.61301 | 1839 ft | 230 kts | 140° |
| 2026-04-28 07:14 | 2.85304 | -60.60643 | 2017 ft | 249 kts | 163° |
| 2026-04-28 07:15 | 2.83571 | -60.60226 | 2239 ft | 262 kts | 164° |
| 2026-04-28 07:15 | 2.81938 | -60.59888 | 2513 ft | 270 kts | 168° |
| 2026-04-28 07:15 | 2.80070 | -60.59613 | 2922 ft | 273 kts | 168° |
| 2026-04-28 07:15 | 2.78198 | -60.59268 | 3319 ft | 275 kts | 164° |
| 2026-04-28 07:16 | 2.76334 | -60.58807 | 3755 ft | 275 kts | 161° |
| 2026-04-28 07:16 | 2.74504 | -60.58253 | 4197 ft | 275 kts | 158° |
| 2026-04-28 07:16 | 2.72692 | -60.57631 | 4631 ft | 276 kts | 156° |
| 2026-04-28 07:16 | 2.70891 | -60.56963 | 5051 ft | 276 kts | 155° |
| 2026-04-28 07:17 | 2.69101 | -60.56266 | 5474 ft | 276 kts | 155° |
| 2026-04-28 07:17 | 2.67312 | -60.55555 | 5891 ft | 276 kts | 155° |
| 2026-04-28 07:17 | 2.65527 | -60.54838 | 6308 ft | 277 kts | 155° |
| 2026-04-28 07:17 | 2.63752 | -60.54135 | 6658 ft | 278 kts | 155° |
| 2026-04-28 07:18 | 2.61942 | -60.53426 | 6993 ft | 280 kts | 155° |
| 2026-04-28 07:18 | 2.60120 | -60.52719 | 7341 ft | 282 kts | 155° |
| 2026-04-28 07:18 | 2.58290 | -60.52008 | 7683 ft | 283 kts | 155° |
| 2026-04-28 07:18 | 2.56452 | -60.51296 | 8010 ft | 284 kts | 155° |
| 2026-04-28 07:19 | 2.54605 | -60.50572 | 8350 ft | 286 kts | 155° |
| 2026-04-28 07:19 | 2.52754 | -60.49843 | 8684 ft | 287 kts | 155° |
| 2026-04-28 07:19 | 2.50885 | -60.49113 | 9000 ft | 288 kts | 155° |
| 2026-04-28 07:19 | 2.49643 | -60.48628 | 9216 ft | 289 kts | 155° |
| 2026-04-28 07:20 | 2.47765 | -60.47896 | 9535 ft | 291 kts | 155° |
| 2026-04-28 07:20 | 2.45877 | -60.47159 | 9866 ft | 292 kts | 156° |
| 2026-04-28 07:20 | 2.43975 | -60.46414 | 10067 ft | 298 kts | 155° |
| 2026-04-28 07:20 | 2.42008 | -60.45640 | 10072 ft | 310 kts | 155° |
| 2026-04-28 07:21 | 2.39968 | -60.44831 | 10098 ft | 321 kts | 155° |
| 2026-04-28 07:21 | 2.37869 | -60.43996 | 10177 ft | 328 kts | 155° |
| 2026-04-28 07:21 | 2.35748 | -60.43146 | 10386 ft | 330 kts | 156° |
| 2026-04-28 07:22 | 2.31442 | -60.41479 | 10848 ft | 333 kts | 156° |
| 2026-04-28 07:22 | 2.29284 | -60.40639 | 10976 ft | 334 kts | 156° |
| 2026-04-28 07:22 | 2.27121 | -60.39776 | 11197 ft | 335 kts | 155° |
| 2026-04-28 07:22 | 2.24990 | -60.38825 | 11431 ft | 336 kts | 152° |
| 2026-04-28 07:23 | 2.22886 | -60.37793 | 11659 ft | 337 kts | 151° |
| 2026-04-28 07:23 | 2.20783 | -60.36742 | 11892 ft | 339 kts | 151° |
| 2026-04-28 07:23 | 2.18668 | -60.35675 | 12128 ft | 340 kts | 150° |
| 2026-04-28 07:23 | 2.16551 | -60.34597 | 12366 ft | 342 kts | 150° |
| 2026-04-28 07:24 | 2.14425 | -60.33519 | 12596 ft | 344 kts | 151° |
| 2026-04-28 07:24 | 2.12305 | -60.32466 | 12825 ft | 345 kts | 151° |
| 2026-04-28 07:24 | 2.10149 | -60.31396 | 13063 ft | 347 kts | 151° |
| 2026-04-28 07:24 | 2.07977 | -60.30322 | 13294 ft | 349 kts | 152° |
| 2026-04-28 07:25 | 2.05789 | -60.29242 | 13536 ft | 350 kts | 152° |
| 2026-04-28 07:25 | 2.03601 | -60.28157 | 13749 ft | 352 kts | 152° |
| 2026-04-28 07:25 | 2.01405 | -60.27066 | 13980 ft | 352 kts | 151° |
| 2026-04-28 07:25 | 1.99208 | -60.25976 | 14191 ft | 353 kts | 152° |
| 2026-04-28 07:26 | 1.96999 | -60.24880 | 14416 ft | 354 kts | 152° |
| 2026-04-28 07:26 | 1.94786 | -60.23786 | 14623 ft | 355 kts | 152° |
| 2026-04-28 07:26 | 1.92564 | -60.22703 | 14839 ft | 356 kts | 152° |
| 2026-04-28 07:26 | 1.90370 | -60.21621 | 15047 ft | 356 kts | 152° |
| 2026-04-28 07:27 | 1.88142 | -60.20520 | 15262 ft | 357 kts | 152° |
| 2026-04-28 07:27 | 1.85911 | -60.19416 | 15480 ft | 358 kts | 151° |
| 2026-04-28 07:27 | 1.83673 | -60.18310 | 15694 ft | 359 kts | 151° |
| 2026-04-28 07:27 | 1.81424 | -60.17200 | 15914 ft | 360 kts | 151° |
| 2026-04-28 07:28 | 1.79180 | -60.16090 | 16136 ft | 361 kts | 151° |
| 2026-04-28 07:28 | 1.76921 | -60.14974 | 16352 ft | 362 kts | 151° |
| 2026-04-28 07:28 | 1.74714 | -60.13885 | 16559 ft | 362 kts | 151° |
| 2026-04-28 07:28 | 1.72447 | -60.12767 | 16785 ft | 363 kts | 151° |
| 2026-04-28 07:29 | 1.70176 | -60.11648 | 16991 ft | 364 kts | 151° |
| 2026-04-28 07:29 | 1.67900 | -60.10527 | 17206 ft | 365 kts | 151° |
| 2026-04-28 07:29 | 1.65618 | -60.09403 | 17415 ft | 366 kts | 151° |
| 2026-04-28 07:29 | 1.63330 | -60.08278 | 17607 ft | 367 kts | 151° |
| 2026-04-28 07:30 | 1.61034 | -60.07150 | 17832 ft | 368 kts | 151° |
| 2026-04-28 07:30 | 1.58734 | -60.06003 | 18030 ft | 368 kts | 148° |
| 2026-04-28 07:30 | 1.56821 | -60.04382 | 18202 ft | 364 kts | 124° |
| 2026-04-28 07:30 | 1.55544 | -60.02212 | 18372 ft | 363 kts | 115° |
| 2026-04-28 07:31 | 1.54482 | -59.99922 | 18553 ft | 363 kts | 112° |
| 2026-04-28 07:31 | 1.53523 | -59.97586 | 18737 ft | 363 kts | 110° |
| 2026-04-28 07:31 | 1.52627 | -59.95238 | 18910 ft | 364 kts | 109° |
| 2026-04-28 07:31 | 1.51728 | -59.92863 | 19090 ft | 365 kts | 109° |
| 2026-04-28 07:32 | 1.50823 | -59.90490 | 19279 ft | 366 kts | 110° |
| 2026-04-28 07:32 | 1.49898 | -59.88105 | 19464 ft | 366 kts | 110° |
| 2026-04-28 07:32 | 1.48965 | -59.85733 | 19649 ft | 367 kts | 110° |
| 2026-04-28 07:32 | 1.48006 | -59.83365 | 19828 ft | 368 kts | 111° |
| 2026-04-28 07:33 | 1.47049 | -59.81018 | 20010 ft | 369 kts | 111° |
| 2026-04-28 07:33 | 1.46095 | -59.78633 | 20195 ft | 370 kts | 110° |
| 2026-04-28 07:33 | 1.45145 | -59.76246 | 20379 ft | 371 kts | 111° |
| 2026-04-28 07:33 | 1.44173 | -59.73853 | 20547 ft | 372 kts | 111° |